sensor_id;sensor_type;location;lat;lon;timestamp;P1;durP1;ratioP1;P2;durP2;ratioP2
31596;SDS011;74162;50.912;6.918;2024-03-23T00:51:46;44.67;;;25.25;;
31596;SDS011;74162;50.912;6.918;2024-03-23T00:52:50;49.00;;;26.98;;
31596;SDS011;74162;50.912;6.918;2024-03-23T00:53:22;53.35;;;28.48;;
31596;SDS011;74162;50.912;6.918;2024-03-23T00:54:25;46.70;;;28.20;;
31596;SDS011;74162;50.912;6.918;2024-03-23T00:54:57;48.80;;;26.67;;
31596;SDS011;74162;50.912;6.918;2024-03-23T00:55:28;46.17;;;26.25;;
31596;SDS011;74162;50.912;6.918;2024-03-23T00:56:00;45.47;;;26.52;;
31596;SDS011;74162;50.912;6.918;2024-03-23T00:56:31;48.08;;;25.83;;
31596;SDS011;74162;50.912;6.918;2024-03-23T00:57:02;45.00;;;25.92;;
31596;SDS011;74162;50.912;6.918;2024-03-23T00:57:33;48.38;;;26.45;;
31596;SDS011;74162;50.912;6.918;2024-03-23T00:58:04;44.42;;;24.90;;
31596;SDS011;74162;50.912;6.918;2024-03-23T00:58:35;46.92;;;26.10;;
31596;SDS011;74162;50.912;6.918;2024-03-23T00:59:06;49.38;;;27.55;;
31596;SDS011;74162;50.912;6.918;2024-03-23T00:59:38;46.42;;;25.70;;
31596;SDS011;74162;50.912;6.918;2024-03-23T01:00:10;43.03;;;25.25;;
31596;SDS011;74162;50.912;6.918;2024-03-23T01:00:41;54.00;;;28.10;;
31596;SDS011;74162;50.912;6.918;2024-03-23T01:01:13;57.65;;;27.58;;
31596;SDS011;74162;50.912;6.918;2024-03-23T01:01:44;51.85;;;27.92;;
31596;SDS011;74162;50.912;6.918;2024-03-23T01:02:15;52.00;;;27.23;;
31596;SDS011;74162;50.912;6.918;2024-03-23T01:02:46;44.42;;;26.73;;
31596;SDS011;74162;50.912;6.918;2024-03-23T01:03:17;43.80;;;26.45;;
31596;SDS011;74162;50.912;6.918;2024-03-23T01:03:49;47.10;;;25.88;;
31596;SDS011;74162;50.912;6.918;2024-03-23T01:04:20;44.72;;;25.98;;
31596;SDS011;74162;50.912;6.918;2024-03-23T01:04:51;42.92;;;24.75;;
31596;SDS011;74162;50.912;6.918;2024-03-23T01:05:22;46.40;;;24.83;;
31596;SDS011;74162;50.912;6.918;2024-03-23T01:05:53;46.70;;;26.33;;
31596;SDS011;74162;50.912;6.918;2024-03-23T01:06:24;49.00;;;26.95;;
31596;SDS011;74162;50.912;6.918;2024-03-23T01:06:55;46.88;;;26.00;;
31596;SDS011;74162;50.912;6.918;2024-03-23T01:07:26;44.25;;;25.20;;
31596;SDS011;74162;50.912;6.918;2024-03-23T01:07:58;44.28;;;25.00;;
31596;SDS011;74162;50.912;6.918;2024-03-23T01:08:29;42.58;;;25.80;;
31596;SDS011;74162;50.912;6.918;2024-03-23T01:09:00;48.53;;;26.40;;
31596;SDS011;74162;50.912;6.918;2024-03-23T01:09:31;49.30;;;26.52;;
31596;SDS011;74162;50.912;6.918;2024-03-23T01:10:02;49.53;;;27.80;;
31596;SDS011;74162;50.912;6.918;2024-03-23T01:10:33;50.35;;;28.70;;
31596;SDS011;74162;50.912;6.918;2024-03-23T01:11:04;57.70;;;29.75;;
31596;SDS011;74162;50.912;6.918;2024-03-23T01:11:37;53.67;;;31.25;;
31596;SDS011;74162;50.912;6.918;2024-03-23T01:12:08;54.38;;;31.90;;
31596;SDS011;74162;50.912;6.918;2024-03-23T01:12:39;51.55;;;30.80;;
31596;SDS011;74162;50.912;6.918;2024-03-23T01:13:10;52.33;;;31.23;;
31596;SDS011;74162;50.912;6.918;2024-03-23T01:13:41;54.05;;;30.25;;
31596;SDS011;74162;50.912;6.918;2024-03-23T01:14:12;55.00;;;30.92;;
31596;SDS011;74162;50.912;6.918;2024-03-23T01:14:43;57.22;;;31.52;;
31596;SDS011;74162;50.912;6.918;2024-03-23T01:15:14;52.03;;;30.00;;
31596;SDS011;74162;50.912;6.918;2024-03-23T01:15:48;55.00;;;32.80;;
31596;SDS011;74162;50.912;6.918;2024-03-23T01:16:23;56.83;;;32.10;;
31596;SDS011;74162;50.912;6.918;2024-03-23T01:16:55;57.17;;;32.28;;
31596;SDS011;74162;50.912;6.918;2024-03-23T01:17:26;55.33;;;32.55;;
31596;SDS011;74162;50.912;6.918;2024-03-23T01:17:57;56.25;;;32.10;;
31596;SDS011;74162;50.912;6.918;2024-03-23T01:18:28;59.45;;;33.15;;
31596;SDS011;74162;50.912;6.918;2024-03-23T01:18:59;58.47;;;33.17;;
31596;SDS011;74162;50.912;6.918;2024-03-23T01:19:30;60.50;;;34.28;;
31596;SDS011;74162;50.912;6.918;2024-03-23T01:20:02;53.67;;;33.47;;
31596;SDS011;74162;50.912;6.918;2024-03-23T01:20:34;58.53;;;33.22;;
31596;SDS011;74162;50.912;6.918;2024-03-23T01:21:05;48.70;;;30.48;;
31596;SDS011;74162;50.912;6.918;2024-03-23T01:21:36;51.60;;;30.58;;
31596;SDS011;74162;50.912;6.918;2024-03-23T01:22:07;48.95;;;30.50;;
31596;SDS011;74162;50.912;6.918;2024-03-23T01:22:40;47.15;;;28.77;;
31596;SDS011;74162;50.912;6.918;2024-03-23T01:23:12;50.92;;;29.10;;
31596;SDS011;74162;50.912;6.918;2024-03-23T01:23:43;41.45;;;25.88;;
31596;SDS011;74162;50.912;6.918;2024-03-23T01:24:14;36.50;;;22.48;;
31596;SDS011;74162;50.912;6.918;2024-03-23T01:24:45;31.98;;;20.83;;
31596;SDS011;74162;50.912;6.918;2024-03-23T01:25:17;27.88;;;19.17;;
31596;SDS011;74162;50.912;6.918;2024-03-23T01:25:54;26.63;;;18.13;;
31596;SDS011;74162;50.912;6.918;2024-03-23T01:26:25;30.15;;;19.88;;
31596;SDS011;74162;50.912;6.918;2024-03-23T01:26:57;26.77;;;18.20;;
31596;SDS011;74162;50.912;6.918;2024-03-23T01:27:28;32.25;;;18.63;;
31596;SDS011;74162;50.912;6.918;2024-03-23T01:27:59;27.83;;;17.25;;
31596;SDS011;74162;50.912;6.918;2024-03-23T01:28:30;29.17;;;18.63;;
31596;SDS011;74162;50.912;6.918;2024-03-23T01:29:01;28.65;;;18.50;;
31596;SDS011;74162;50.912;6.918;2024-03-23T01:29:32;32.00;;;19.23;;
31596;SDS011;74162;50.912;6.918;2024-03-23T01:30:03;26.33;;;17.88;;
31596;SDS011;74162;50.912;6.918;2024-03-23T01:30:36;28.48;;;17.85;;
31596;SDS011;74162;50.912;6.918;2024-03-23T01:31:07;30.13;;;18.58;;
31596;SDS011;74162;50.912;6.918;2024-03-23T01:31:38;26.48;;;17.83;;
31596;SDS011;74162;50.912;6.918;2024-03-23T01:32:09;28.35;;;19.58;;
31596;SDS011;74162;50.912;6.918;2024-03-23T01:32:40;25.52;;;18.25;;
31596;SDS011;74162;50.912;6.918;2024-03-23T01:33:12;29.10;;;18.45;;
31596;SDS011;74162;50.912;6.918;2024-03-23T01:33:43;29.05;;;18.70;;
31596;SDS011;74162;50.912;6.918;2024-03-23T01:34:15;26.08;;;18.15;;
31596;SDS011;74162;50.912;6.918;2024-03-23T01:34:46;23.98;;;18.67;;
31596;SDS011;74162;50.912;6.918;2024-03-23T01:35:17;29.58;;;18.48;;
31596;SDS011;74162;50.912;6.918;2024-03-23T01:35:48;30.92;;;18.95;;
31596;SDS011;74162;50.912;6.918;2024-03-23T01:36:18;32.13;;;19.73;;
31596;SDS011;74162;50.912;6.918;2024-03-23T01:36:50;24.58;;;19.35;;
31596;SDS011;74162;50.912;6.918;2024-03-23T01:37:21;28.55;;;19.15;;
31596;SDS011;74162;50.912;6.918;2024-03-23T01:37:53;29.48;;;19.42;;
31596;SDS011;74162;50.912;6.918;2024-03-23T01:38:24;27.88;;;19.95;;
31596;SDS011;74162;50.912;6.918;2024-03-23T01:38:55;30.98;;;20.73;;
31596;SDS011;74162;50.912;6.918;2024-03-23T01:39:26;30.50;;;18.98;;
31596;SDS011;74162;50.912;6.918;2024-03-23T01:39:57;26.48;;;18.63;;
31596;SDS011;74162;50.912;6.918;2024-03-23T01:40:29;26.10;;;18.30;;
31596;SDS011;74162;50.912;6.918;2024-03-23T01:41:02;24.60;;;17.33;;
31596;SDS011;74162;50.912;6.918;2024-03-23T01:41:34;26.10;;;17.48;;
31596;SDS011;74162;50.912;6.918;2024-03-23T01:42:06;21.20;;;17.00;;
31596;SDS011;74162;50.912;6.918;2024-03-23T01:42:37;26.50;;;18.77;;
31596;SDS011;74162;50.912;6.918;2024-03-23T01:43:08;26.55;;;19.38;;
31596;SDS011;74162;50.912;6.918;2024-03-23T01:43:39;26.05;;;19.13;;
31596;SDS011;74162;50.912;6.918;2024-03-23T01:44:11;26.58;;;18.67;;
31596;SDS011;74162;50.912;6.918;2024-03-23T01:44:43;24.05;;;17.48;;
31596;SDS011;74162;50.912;6.918;2024-03-23T01:45:14;24.88;;;18.60;;
31596;SDS011;74162;50.912;6.918;2024-03-23T01:45:45;26.27;;;17.80;;
31596;SDS011;74162;50.912;6.918;2024-03-23T01:46:16;30.10;;;19.10;;
31596;SDS011;74162;50.912;6.918;2024-03-23T01:46:48;26.25;;;18.92;;
31596;SDS011;74162;50.912;6.918;2024-03-23T01:47:19;23.50;;;17.95;;
31596;SDS011;74162;50.912;6.918;2024-03-23T01:47:51;27.63;;;17.95;;
31596;SDS011;74162;50.912;6.918;2024-03-23T01:48:24;25.85;;;17.45;;
31596;SDS011;74162;50.912;6.918;2024-03-23T01:48:55;25.38;;;17.17;;
31596;SDS011;74162;50.912;6.918;2024-03-23T01:49:26;22.13;;;16.40;;
31596;SDS011;74162;50.912;6.918;2024-03-23T01:49:57;22.35;;;15.38;;
31596;SDS011;74162;50.912;6.918;2024-03-23T01:50:28;28.88;;;17.00;;
31596;SDS011;74162;50.912;6.918;2024-03-23T01:51:03;23.00;;;16.20;;
31596;SDS011;74162;50.912;6.918;2024-03-23T01:51:36;23.85;;;15.68;;
31596;SDS011;74162;50.912;6.918;2024-03-23T01:52:08;26.55;;;16.13;;
31596;SDS011;74162;50.912;6.918;2024-03-23T01:52:39;24.63;;;17.40;;
31596;SDS011;74162;50.912;6.918;2024-03-23T01:53:10;28.08;;;17.42;;
31596;SDS011;74162;50.912;6.918;2024-03-23T01:53:41;28.48;;;17.42;;
31596;SDS011;74162;50.912;6.918;2024-03-23T01:54:12;26.20;;;16.70;;
31596;SDS011;74162;50.912;6.918;2024-03-23T01:54:44;23.10;;;15.57;;
31596;SDS011;74162;50.912;6.918;2024-03-23T01:55:15;22.38;;;15.15;;
31596;SDS011;74162;50.912;6.918;2024-03-23T01:55:47;22.13;;;15.43;;
31596;SDS011;74162;50.912;6.918;2024-03-23T01:56:22;27.83;;;15.60;;
31596;SDS011;74162;50.912;6.918;2024-03-23T01:56:53;24.77;;;15.65;;
31596;SDS011;74162;50.912;6.918;2024-03-23T01:57:25;25.77;;;16.38;;
31596;SDS011;74162;50.912;6.918;2024-03-23T01:57:56;27.40;;;17.15;;
31596;SDS011;74162;50.912;6.918;2024-03-23T01:58:27;25.58;;;16.05;;
31596;SDS011;74162;50.912;6.918;2024-03-23T01:58:59;24.35;;;16.13;;
31596;SDS011;74162;50.912;6.918;2024-03-23T01:59:31;26.98;;;16.10;;
31596;SDS011;74162;50.912;6.918;2024-03-23T02:00:02;27.23;;;15.82;;
31596;SDS011;74162;50.912;6.918;2024-03-23T02:00:42;25.23;;;15.75;;
31596;SDS011;74162;50.912;6.918;2024-03-23T02:01:13;25.08;;;15.55;;
31596;SDS011;74162;50.912;6.918;2024-03-23T02:01:44;23.95;;;15.45;;
31596;SDS011;74162;50.912;6.918;2024-03-23T02:02:15;21.40;;;14.35;;
31596;SDS011;74162;50.912;6.918;2024-03-23T02:02:50;23.17;;;14.10;;
31596;SDS011;74162;50.912;6.918;2024-03-23T02:03:24;21.80;;;13.57;;
31596;SDS011;74162;50.912;6.918;2024-03-23T02:03:57;25.88;;;14.30;;
31596;SDS011;74162;50.912;6.918;2024-03-23T02:04:28;22.88;;;13.70;;
31596;SDS011;74162;50.912;6.918;2024-03-23T02:04:59;23.83;;;14.40;;
31596;SDS011;74162;50.912;6.918;2024-03-23T02:05:30;23.90;;;14.20;;
31596;SDS011;74162;50.912;6.918;2024-03-23T02:06:01;21.63;;;13.57;;
31596;SDS011;74162;50.912;6.918;2024-03-23T02:06:33;22.38;;;13.00;;
31596;SDS011;74162;50.912;6.918;2024-03-23T02:07:06;23.85;;;14.60;;
31596;SDS011;74162;50.912;6.918;2024-03-23T02:07:38;22.77;;;13.10;;
31596;SDS011;74162;50.912;6.918;2024-03-23T02:08:13;22.40;;;12.20;;
31596;SDS011;74162;50.912;6.918;2024-03-23T02:08:44;23.50;;;12.85;;
31596;SDS011;74162;50.912;6.918;2024-03-23T02:09:15;21.98;;;12.45;;
31596;SDS011;74162;50.912;6.918;2024-03-23T02:09:46;24.98;;;12.35;;
31596;SDS011;74162;50.912;6.918;2024-03-23T02:10:18;23.67;;;12.48;;
31596;SDS011;74162;50.912;6.918;2024-03-23T02:10:50;19.98;;;11.98;;
31596;SDS011;74162;50.912;6.918;2024-03-23T02:11:21;19.75;;;11.90;;
31596;SDS011;74162;50.912;6.918;2024-03-23T02:11:53;20.92;;;11.30;;
31596;SDS011;74162;50.912;6.918;2024-03-23T02:12:24;23.02;;;12.10;;
31596;SDS011;74162;50.912;6.918;2024-03-23T02:12:55;23.55;;;12.82;;
31596;SDS011;74162;50.912;6.918;2024-03-23T02:13:26;23.95;;;12.40;;
31596;SDS011;74162;50.912;6.918;2024-03-23T02:13:57;18.73;;;11.10;;
31596;SDS011;74162;50.912;6.918;2024-03-23T02:14:28;24.58;;;12.30;;
31596;SDS011;74162;50.912;6.918;2024-03-23T02:15:01;23.35;;;12.80;;
31596;SDS011;74162;50.912;6.918;2024-03-23T02:15:32;23.10;;;12.15;;
31596;SDS011;74162;50.912;6.918;2024-03-23T02:16:04;23.67;;;12.45;;
31596;SDS011;74162;50.912;6.918;2024-03-23T02:16:36;24.23;;;12.77;;
31596;SDS011;74162;50.912;6.918;2024-03-23T02:17:07;25.55;;;13.20;;
31596;SDS011;74162;50.912;6.918;2024-03-23T02:17:39;26.30;;;13.45;;
31596;SDS011;74162;50.912;6.918;2024-03-23T02:18:11;27.67;;;13.27;;
31596;SDS011;74162;50.912;6.918;2024-03-23T02:18:42;25.90;;;13.15;;
31596;SDS011;74162;50.912;6.918;2024-03-23T02:19:13;22.25;;;12.63;;
31596;SDS011;74162;50.912;6.918;2024-03-23T02:19:44;24.88;;;12.77;;
31596;SDS011;74162;50.912;6.918;2024-03-23T02:20:16;23.65;;;13.30;;
31596;SDS011;74162;50.912;6.918;2024-03-23T02:20:48;24.40;;;13.98;;
31596;SDS011;74162;50.912;6.918;2024-03-23T02:21:19;27.55;;;14.68;;
31596;SDS011;74162;50.912;6.918;2024-03-23T02:21:50;27.35;;;14.73;;
31596;SDS011;74162;50.912;6.918;2024-03-23T02:22:21;26.67;;;14.45;;
31596;SDS011;74162;50.912;6.918;2024-03-23T02:22:53;29.33;;;15.02;;
31596;SDS011;74162;50.912;6.918;2024-03-23T02:23:24;25.05;;;15.65;;
31596;SDS011;74162;50.912;6.918;2024-03-23T02:23:56;26.23;;;15.30;;
31596;SDS011;74162;50.912;6.918;2024-03-23T02:24:29;26.58;;;15.30;;
31596;SDS011;74162;50.912;6.918;2024-03-23T02:25:00;26.65;;;15.63;;
31596;SDS011;74162;50.912;6.918;2024-03-23T02:25:31;27.83;;;15.57;;
31596;SDS011;74162;50.912;6.918;2024-03-23T02:26:03;29.70;;;16.80;;
31596;SDS011;74162;50.912;6.918;2024-03-23T02:26:34;28.55;;;15.65;;
31596;SDS011;74162;50.912;6.918;2024-03-23T02:27:05;30.55;;;17.27;;
31596;SDS011;74162;50.912;6.918;2024-03-23T02:27:37;29.90;;;17.08;;
31596;SDS011;74162;50.912;6.918;2024-03-23T02:28:09;30.23;;;17.77;;
31596;SDS011;74162;50.912;6.918;2024-03-23T02:28:40;33.67;;;18.55;;
31596;SDS011;74162;50.912;6.918;2024-03-23T02:29:13;33.28;;;18.77;;
31596;SDS011;74162;50.912;6.918;2024-03-23T02:29:45;31.05;;;17.88;;
31596;SDS011;74162;50.912;6.918;2024-03-23T02:30:16;32.85;;;18.73;;
31596;SDS011;74162;50.912;6.918;2024-03-23T02:30:47;34.40;;;19.05;;
31596;SDS011;74162;50.912;6.918;2024-03-23T02:31:18;28.40;;;16.35;;
31596;SDS011;74162;50.912;6.918;2024-03-23T02:31:50;29.63;;;15.57;;
31596;SDS011;74162;50.912;6.918;2024-03-23T02:32:21;21.50;;;12.55;;
31596;SDS011;74162;50.912;6.918;2024-03-23T02:32:52;19.50;;;9.85;;
31596;SDS011;74162;50.912;6.918;2024-03-23T02:33:23;20.73;;;10.68;;
31596;SDS011;74162;50.912;6.918;2024-03-23T02:33:54;15.05;;;7.22;;
31596;SDS011;74162;50.912;6.918;2024-03-23T02:34:25;15.40;;;7.43;;
31596;SDS011;74162;50.912;6.918;2024-03-23T02:34:56;15.90;;;7.13;;
31596;SDS011;74162;50.912;6.918;2024-03-23T02:35:28;18.70;;;8.52;;
31596;SDS011;74162;50.912;6.918;2024-03-23T02:36:00;15.48;;;6.35;;
31596;SDS011;74162;50.912;6.918;2024-03-23T02:36:31;13.60;;;6.28;;
31596;SDS011;74162;50.912;6.918;2024-03-23T02:37:02;14.27;;;5.90;;
31596;SDS011;74162;50.912;6.918;2024-03-23T02:37:33;14.48;;;6.00;;
31596;SDS011;74162;50.912;6.918;2024-03-23T02:38:04;15.85;;;6.20;;
31596;SDS011;74162;50.912;6.918;2024-03-23T02:38:35;13.73;;;5.97;;
31596;SDS011;74162;50.912;6.918;2024-03-23T02:39:07;13.27;;;5.40;;
31596;SDS011;74162;50.912;6.918;2024-03-23T02:39:38;11.93;;;5.40;;
31596;SDS011;74162;50.912;6.918;2024-03-23T02:40:09;10.73;;;5.30;;
31596;SDS011;74162;50.912;6.918;2024-03-23T02:40:40;10.93;;;5.40;;
31596;SDS011;74162;50.912;6.918;2024-03-23T02:41:11;10.07;;;5.15;;
31596;SDS011;74162;50.912;6.918;2024-03-23T02:41:43;12.48;;;4.88;;
31596;SDS011;74162;50.912;6.918;2024-03-23T02:42:14;11.70;;;4.97;;
31596;SDS011;74162;50.912;6.918;2024-03-23T02:42:47;12.98;;;5.50;;
31596;SDS011;74162;50.912;6.918;2024-03-23T02:43:18;12.07;;;5.15;;
31596;SDS011;74162;50.912;6.918;2024-03-23T02:43:50;9.38;;;4.80;;
31596;SDS011;74162;50.912;6.918;2024-03-23T02:44:20;11.23;;;4.47;;
31596;SDS011;74162;50.912;6.918;2024-03-23T02:44:52;10.38;;;4.65;;
31596;SDS011;74162;50.912;6.918;2024-03-23T02:45:24;9.02;;;4.53;;
31596;SDS011;74162;50.912;6.918;2024-03-23T02:45:55;11.50;;;4.95;;
31596;SDS011;74162;50.912;6.918;2024-03-23T02:46:26;13.55;;;3.92;;
31596;SDS011;74162;50.912;6.918;2024-03-23T02:46:57;10.65;;;5.03;;
31596;SDS011;74162;50.912;6.918;2024-03-23T02:47:28;14.48;;;4.97;;
31596;SDS011;74162;50.912;6.918;2024-03-23T02:47:59;12.57;;;4.55;;
31596;SDS011;74162;50.912;6.918;2024-03-23T02:48:31;11.65;;;4.85;;
31596;SDS011;74162;50.912;6.918;2024-03-23T02:49:02;12.52;;;5.30;;
31596;SDS011;74162;50.912;6.918;2024-03-23T02:49:34;11.30;;;4.70;;
31596;SDS011;74162;50.912;6.918;2024-03-23T02:50:05;13.40;;;5.20;;
31596;SDS011;74162;50.912;6.918;2024-03-23T02:50:36;12.82;;;4.80;;
31596;SDS011;74162;50.912;6.918;2024-03-23T02:51:07;12.77;;;4.45;;
31596;SDS011;74162;50.912;6.918;2024-03-23T02:51:38;13.85;;;4.50;;
31596;SDS011;74162;50.912;6.918;2024-03-23T02:52:11;11.18;;;3.97;;
31596;SDS011;74162;50.912;6.918;2024-03-23T02:52:42;11.80;;;4.03;;
31596;SDS011;74162;50.912;6.918;2024-03-23T02:53:13;16.33;;;4.60;;
31596;SDS011;74162;50.912;6.918;2024-03-23T02:53:44;12.95;;;4.28;;
31596;SDS011;74162;50.912;6.918;2024-03-23T02:54:15;13.10;;;4.22;;
31596;SDS011;74162;50.912;6.918;2024-03-23T02:54:46;11.82;;;4.43;;
31596;SDS011;74162;50.912;6.918;2024-03-23T02:55:17;12.43;;;4.53;;
31596;SDS011;74162;50.912;6.918;2024-03-23T02:55:48;15.77;;;4.40;;
31596;SDS011;74162;50.912;6.918;2024-03-23T02:56:20;14.38;;;4.80;;
31596;SDS011;74162;50.912;6.918;2024-03-23T02:56:51;15.43;;;4.75;;
31596;SDS011;74162;50.912;6.918;2024-03-23T02:57:22;13.30;;;5.10;;
31596;SDS011;74162;50.912;6.918;2024-03-23T02:57:53;16.70;;;4.82;;
31596;SDS011;74162;50.912;6.918;2024-03-23T02:58:24;15.25;;;4.72;;
31596;SDS011;74162;50.912;6.918;2024-03-23T02:58:55;12.48;;;4.68;;
31596;SDS011;74162;50.912;6.918;2024-03-23T02:59:26;16.65;;;5.07;;
31596;SDS011;74162;50.912;6.918;2024-03-23T02:59:58;15.38;;;5.07;;
31596;SDS011;74162;50.912;6.918;2024-03-23T03:00:29;16.92;;;4.65;;
31596;SDS011;74162;50.912;6.918;2024-03-23T03:01:00;13.02;;;4.70;;
31596;SDS011;74162;50.912;6.918;2024-03-23T03:01:31;14.63;;;4.95;;
31596;SDS011;74162;50.912;6.918;2024-03-23T03:02:02;17.55;;;4.80;;
31596;SDS011;74162;50.912;6.918;2024-03-23T03:02:34;15.32;;;4.20;;
31596;SDS011;74162;50.912;6.918;2024-03-23T03:03:07;14.10;;;4.95;;
31596;SDS011;74162;50.912;6.918;2024-03-23T03:03:39;16.60;;;5.47;;
31596;SDS011;74162;50.912;6.918;2024-03-23T03:04:10;13.50;;;4.80;;
31596;SDS011;74162;50.912;6.918;2024-03-23T03:04:41;15.38;;;5.20;;
31596;SDS011;74162;50.912;6.918;2024-03-23T03:05:12;13.07;;;4.88;;
31596;SDS011;74162;50.912;6.918;2024-03-23T03:05:44;17.05;;;5.97;;
31596;SDS011;74162;50.912;6.918;2024-03-23T03:06:22;12.70;;;4.35;;
31596;SDS011;74162;50.912;6.918;2024-03-23T03:06:57;16.30;;;4.78;;
31596;SDS011;74162;50.912;6.918;2024-03-23T03:07:29;15.90;;;5.28;;
31596;SDS011;74162;50.912;6.918;2024-03-23T03:08:00;18.67;;;5.18;;
31596;SDS011;74162;50.912;6.918;2024-03-23T03:08:31;14.30;;;4.70;;
31596;SDS011;74162;50.912;6.918;2024-03-23T03:09:02;11.93;;;4.25;;
31596;SDS011;74162;50.912;6.918;2024-03-23T03:09:33;17.05;;;4.90;;
31596;SDS011;74162;50.912;6.918;2024-03-23T03:10:05;11.90;;;5.05;;
31596;SDS011;74162;50.912;6.918;2024-03-23T03:10:38;17.60;;;5.00;;
31596;SDS011;74162;50.912;6.918;2024-03-23T03:11:10;14.50;;;4.82;;
31596;SDS011;74162;50.912;6.918;2024-03-23T03:11:41;13.63;;;4.95;;
31596;SDS011;74162;50.912;6.918;2024-03-23T03:12:12;15.65;;;5.80;;
31596;SDS011;74162;50.912;6.918;2024-03-23T03:12:43;14.93;;;4.85;;
31596;SDS011;74162;50.912;6.918;2024-03-23T03:13:14;16.48;;;4.68;;
31596;SDS011;74162;50.912;6.918;2024-03-23T03:13:45;14.20;;;4.80;;
31596;SDS011;74162;50.912;6.918;2024-03-23T03:14:16;16.10;;;4.88;;
31596;SDS011;74162;50.912;6.918;2024-03-23T03:14:48;14.55;;;4.45;;
31596;SDS011;74162;50.912;6.918;2024-03-23T03:15:19;14.45;;;4.47;;
31596;SDS011;74162;50.912;6.918;2024-03-23T03:15:50;17.05;;;5.30;;
31596;SDS011;74162;50.912;6.918;2024-03-23T03:16:21;17.27;;;5.00;;
31596;SDS011;74162;50.912;6.918;2024-03-23T03:16:52;16.55;;;5.13;;
31596;SDS011;74162;50.912;6.918;2024-03-23T03:17:23;18.80;;;5.00;;
31596;SDS011;74162;50.912;6.918;2024-03-23T03:17:54;17.48;;;4.80;;
31596;SDS011;74162;50.912;6.918;2024-03-23T03:18:26;15.10;;;5.28;;
31596;SDS011;74162;50.912;6.918;2024-03-23T03:18:57;15.48;;;4.72;;
31596;SDS011;74162;50.912;6.918;2024-03-23T03:19:28;18.98;;;4.80;;
31596;SDS011;74162;50.912;6.918;2024-03-23T03:20:00;15.90;;;4.70;;
31596;SDS011;74162;50.912;6.918;2024-03-23T03:20:31;15.27;;;5.00;;
31596;SDS011;74162;50.912;6.918;2024-03-23T03:21:02;18.02;;;4.90;;
31596;SDS011;74162;50.912;6.918;2024-03-23T03:21:35;16.00;;;5.22;;
31596;SDS011;74162;50.912;6.918;2024-03-23T03:22:07;17.50;;;5.50;;
31596;SDS011;74162;50.912;6.918;2024-03-23T03:22:39;14.38;;;4.90;;
31596;SDS011;74162;50.912;6.918;2024-03-23T03:23:10;17.10;;;5.30;;
31596;SDS011;74162;50.912;6.918;2024-03-23T03:23:41;16.48;;;5.45;;
31596;SDS011;74162;50.912;6.918;2024-03-23T03:24:12;14.20;;;5.00;;
31596;SDS011;74162;50.912;6.918;2024-03-23T03:24:44;18.48;;;5.35;;
31596;SDS011;74162;50.912;6.918;2024-03-23T03:25:15;16.88;;;4.95;;
31596;SDS011;74162;50.912;6.918;2024-03-23T03:25:46;14.07;;;5.25;;
31596;SDS011;74162;50.912;6.918;2024-03-23T03:26:18;21.45;;;5.47;;
31596;SDS011;74162;50.912;6.918;2024-03-23T03:26:49;12.05;;;4.25;;
31596;SDS011;74162;50.912;6.918;2024-03-23T03:27:20;15.98;;;4.95;;
31596;SDS011;74162;50.912;6.918;2024-03-23T03:27:52;16.33;;;5.07;;
31596;SDS011;74162;50.912;6.918;2024-03-23T03:28:23;17.98;;;5.07;;
31596;SDS011;74162;50.912;6.918;2024-03-23T03:28:56;16.23;;;5.40;;
31596;SDS011;74162;50.912;6.918;2024-03-23T03:29:27;16.65;;;5.03;;
31596;SDS011;74162;50.912;6.918;2024-03-23T03:30:05;17.02;;;4.90;;
31596;SDS011;74162;50.912;6.918;2024-03-23T03:30:38;17.27;;;5.13;;
31596;SDS011;74162;50.912;6.918;2024-03-23T03:31:10;17.30;;;4.75;;
31596;SDS011;74162;50.912;6.918;2024-03-23T03:31:41;15.27;;;4.68;;
31596;SDS011;74162;50.912;6.918;2024-03-23T03:32:13;17.48;;;5.32;;
31596;SDS011;74162;50.912;6.918;2024-03-23T03:32:44;14.50;;;5.28;;
31596;SDS011;74162;50.912;6.918;2024-03-23T03:33:15;13.63;;;4.65;;
31596;SDS011;74162;50.912;6.918;2024-03-23T03:33:49;15.40;;;5.47;;
31596;SDS011;74162;50.912;6.918;2024-03-23T03:34:20;13.20;;;4.43;;
31596;SDS011;74162;50.912;6.918;2024-03-23T03:34:51;14.85;;;4.55;;
31596;SDS011;74162;50.912;6.918;2024-03-23T03:35:22;15.45;;;4.60;;
31596;SDS011;74162;50.912;6.918;2024-03-23T03:35:53;18.65;;;4.97;;
31596;SDS011;74162;50.912;6.918;2024-03-23T03:36:25;16.95;;;5.47;;
31596;SDS011;74162;50.912;6.918;2024-03-23T03:36:56;19.20;;;5.32;;
31596;SDS011;74162;50.912;6.918;2024-03-23T03:37:29;14.95;;;4.50;;
31596;SDS011;74162;50.912;6.918;2024-03-23T03:38:00;17.13;;;4.65;;
31596;SDS011;74162;50.912;6.918;2024-03-23T03:38:31;15.75;;;5.07;;
31596;SDS011;74162;50.912;6.918;2024-03-23T03:39:05;17.55;;;5.38;;
31596;SDS011;74162;50.912;6.918;2024-03-23T03:39:37;16.80;;;4.40;;
31596;SDS011;74162;50.912;6.918;2024-03-23T03:40:08;15.93;;;4.93;;
31596;SDS011;74162;50.912;6.918;2024-03-23T03:40:41;18.23;;;5.30;;
31596;SDS011;74162;50.912;6.918;2024-03-23T03:41:13;16.65;;;5.25;;
31596;SDS011;74162;50.912;6.918;2024-03-23T03:41:44;15.82;;;4.45;;
31596;SDS011;74162;50.912;6.918;2024-03-23T03:42:15;17.30;;;5.43;;
31596;SDS011;74162;50.912;6.918;2024-03-23T03:42:46;20.35;;;5.60;;
31596;SDS011;74162;50.912;6.918;2024-03-23T03:43:19;19.33;;;5.78;;
31596;SDS011;74162;50.912;6.918;2024-03-23T03:43:50;17.58;;;5.63;;
31596;SDS011;74162;50.912;6.918;2024-03-23T03:44:21;19.35;;;5.50;;
31596;SDS011;74162;50.912;6.918;2024-03-23T03:44:52;20.58;;;5.72;;
31596;SDS011;74162;50.912;6.918;2024-03-23T03:45:24;16.08;;;4.85;;
31596;SDS011;74162;50.912;6.918;2024-03-23T03:45:56;17.20;;;5.20;;
31596;SDS011;74162;50.912;6.918;2024-03-23T03:46:28;17.95;;;5.28;;
31596;SDS011;74162;50.912;6.918;2024-03-23T03:46:59;15.60;;;5.13;;
31596;SDS011;74162;50.912;6.918;2024-03-23T03:47:30;21.65;;;5.70;;
31596;SDS011;74162;50.912;6.918;2024-03-23T03:48:01;16.67;;;4.82;;
31596;SDS011;74162;50.912;6.918;2024-03-23T03:48:33;17.40;;;4.70;;
31596;SDS011;74162;50.912;6.918;2024-03-23T03:49:04;20.58;;;4.90;;
31596;SDS011;74162;50.912;6.918;2024-03-23T03:49:35;17.05;;;5.22;;
31596;SDS011;74162;50.912;6.918;2024-03-23T03:50:07;17.67;;;5.07;;
31596;SDS011;74162;50.912;6.918;2024-03-23T03:50:39;20.13;;;5.40;;
31596;SDS011;74162;50.912;6.918;2024-03-23T03:51:10;19.23;;;5.18;;
31596;SDS011;74162;50.912;6.918;2024-03-23T03:51:41;18.00;;;4.93;;
31596;SDS011;74162;50.912;6.918;2024-03-23T03:52:12;18.80;;;5.65;;
31596;SDS011;74162;50.912;6.918;2024-03-23T03:52:43;15.82;;;5.35;;
31596;SDS011;74162;50.912;6.918;2024-03-23T03:53:14;20.25;;;5.38;;
31596;SDS011;74162;50.912;6.918;2024-03-23T03:53:46;18.38;;;5.22;;
31596;SDS011;74162;50.912;6.918;2024-03-23T03:54:17;17.25;;;5.22;;
31596;SDS011;74162;50.912;6.918;2024-03-23T03:54:48;19.30;;;5.45;;
31596;SDS011;74162;50.912;6.918;2024-03-23T03:55:19;21.13;;;5.40;;
31596;SDS011;74162;50.912;6.918;2024-03-23T03:55:50;16.08;;;4.90;;
31596;SDS011;74162;50.912;6.918;2024-03-23T03:56:21;19.30;;;5.65;;
31596;SDS011;74162;50.912;6.918;2024-03-23T03:56:52;17.85;;;5.45;;
31596;SDS011;74162;50.912;6.918;2024-03-23T03:57:23;19.58;;;5.00;;
31596;SDS011;74162;50.912;6.918;2024-03-23T03:57:55;20.40;;;5.40;;
31596;SDS011;74162;50.912;6.918;2024-03-23T03:58:26;19.45;;;5.63;;